createdAt,value
2023-03-18T00:00:19.345Z,10.57
2023-03-18T00:02:42.206Z,10.66
2023-03-18T00:05:04.958Z,10.58
2023-03-18T00:07:27.225Z,10.49
2023-03-18T00:09:48.838Z,10.59
2023-03-18T00:12:10.777Z,10.48
2023-03-18T00:14:32.961Z,10.45
2023-03-18T00:16:55.101Z,10.42
2023-03-18T00:19:17.878Z,10.43
2023-03-18T00:21:39.340Z,10.30
2023-03-18T00:24:01.094Z,10.26
2023-03-18T00:26:23.730Z,10.35
2023-03-18T00:28:45.180Z,10.44
2023-03-18T00:31:11.470Z,10.31
2023-03-18T00:33:32.914Z,10.38
2023-03-18T00:35:54.844Z,10.17
2023-03-18T00:38:20.917Z,10.29
2023-03-18T00:40:53.427Z,10.26
2023-03-18T00:43:15.236Z,10.27
2023-03-18T00:45:38.397Z,10.34
2023-03-18T00:47:59.854Z,10.26
2023-03-18T00:50:21.299Z,10.32
2023-03-18T00:52:43.896Z,10.23
2023-03-18T00:55:06.977Z,10.19
2023-03-18T00:57:29.607Z,10.24
2023-03-18T00:59:51.853Z,10.21
2023-03-18T01:02:13.543Z,10.11
2023-03-18T01:04:35.134Z,10.06
2023-03-18T01:06:57.918Z,10.11
2023-03-18T01:09:19.438Z,10.06
2023-03-18T01:11:40.964Z,10.20
2023-03-18T01:14:03.588Z,10.06
2023-03-18T01:16:25.364Z,10.20
2023-03-18T01:18:47.445Z,10.19
2023-03-18T01:21:10.401Z,10.14
2023-03-18T01:23:31.886Z,10.14
2023-03-18T01:25:53.652Z,10.13
2023-03-18T01:28:15.604Z,10.09
2023-03-18T01:30:38.259Z,10.15
2023-03-18T01:33:00.806Z,10.17
2023-03-18T01:35:22.705Z,10.18
2023-03-18T01:37:44.246Z,10.21
2023-03-18T01:40:08.155Z,10.09
2023-03-18T01:42:30.137Z,10.01
2023-03-18T01:45:16.191Z,10.06
2023-03-18T01:47:37.629Z,10.17
2023-03-18T01:49:59.950Z,9.94
2023-03-18T01:52:29.035Z,9.99
2023-03-18T01:55:01.090Z,10.07
2023-03-18T01:57:24.130Z,10.05
2023-03-18T01:59:48.820Z,10.01
2023-03-18T02:02:15.708Z,9.92
2023-03-18T02:04:42.171Z,9.74
2023-03-18T02:07:04.716Z,9.86
2023-03-18T02:09:26.226Z,9.79
2023-03-18T02:11:51.760Z,9.93
2023-03-18T02:14:15.003Z,9.93
2023-03-18T02:16:45.339Z,10.01
2023-03-18T02:19:20.354Z,9.92
2023-03-18T02:22:08.715Z,9.74
2023-03-18T02:24:44.320Z,9.78
2023-03-18T02:27:18.437Z,9.99
2023-03-18T02:29:42.505Z,9.93
2023-03-18T02:32:07.528Z,9.98
2023-03-18T02:34:29.707Z,9.91
2023-03-18T02:36:51.676Z,9.81
2023-03-18T02:39:15.343Z,9.75
2023-03-18T02:41:37.664Z,9.84
2023-03-18T02:43:59.450Z,9.71
2023-03-18T02:46:42.964Z,9.84
2023-03-18T02:49:07.687Z,9.57
2023-03-18T02:51:29.741Z,9.64
2023-03-18T02:53:54.367Z,9.67
2023-03-18T02:56:16.227Z,9.75
2023-03-18T02:58:38.224Z,9.59
2023-03-18T03:01:00.406Z,9.66
2023-03-18T03:03:22.059Z,9.73
2023-03-18T03:05:43.645Z,9.73
2023-03-18T03:08:05.631Z,9.71
2023-03-18T03:10:27.065Z,9.78
2023-03-18T03:12:48.901Z,9.86
2023-03-18T03:15:10.953Z,9.97
2023-03-18T03:17:33.707Z,10.09
2023-03-18T03:19:55.199Z,10.22
2023-03-18T03:22:17.432Z,10.37
2023-03-18T03:24:39.025Z,10.48
2023-03-18T03:27:00.655Z,10.52
2023-03-18T03:29:22.151Z,10.64
2023-03-18T03:31:43.590Z,10.59
2023-03-18T03:34:05.047Z,10.67
2023-03-18T03:36:26.806Z,10.67
2023-03-18T03:38:48.370Z,10.84
2023-03-18T03:41:11.746Z,10.86
2023-03-18T03:43:34.003Z,10.77
2023-03-18T03:45:55.811Z,10.88
2023-03-18T03:48:17.599Z,10.83
2023-03-18T03:50:39.841Z,10.91
2023-03-18T03:53:02.557Z,10.86
2023-03-18T03:55:25.003Z,10.74
2023-03-18T03:57:46.616Z,10.69
2023-03-18T04:00:16.669Z,10.57
2023-03-18T04:02:38.116Z,10.54
2023-03-18T04:05:00.200Z,10.71
2023-03-18T04:07:21.659Z,10.61
2023-03-18T04:09:43.102Z,10.42
2023-03-18T04:12:05.673Z,10.54
2023-03-18T04:14:27.094Z,10.51
2023-03-18T04:16:48.971Z,10.59
2023-03-18T04:19:11.068Z,10.59
2023-03-18T04:21:33.012Z,10.64
2023-03-18T04:23:54.548Z,10.65
2023-03-18T04:26:16.049Z,10.49
2023-03-18T04:28:38.326Z,10.65
2023-03-18T04:30:59.960Z,10.81
2023-03-18T04:33:21.449Z,10.89
2023-03-18T04:35:43.649Z,11.07
2023-03-18T04:38:05.660Z,11.06
2023-03-18T04:40:27.110Z,10.99
2023-03-18T04:42:48.910Z,11.04
2023-03-18T04:45:10.946Z,11.08
2023-03-18T04:47:33.579Z,11.18
2023-03-18T04:49:55.217Z,11.19
2023-03-18T04:52:17.188Z,11.21
2023-03-18T04:54:39.638Z,11.20
2023-03-18T04:57:01.662Z,11.11
2023-03-18T04:59:23.106Z,11.12
2023-03-18T05:01:44.694Z,11.02
2023-03-18T05:04:06.649Z,10.94
2023-03-18T05:06:30.779Z,10.86
2023-03-18T05:08:52.874Z,11.04
2023-03-18T05:11:14.968Z,11.23
2023-03-18T05:13:36.415Z,11.29
2023-03-18T05:15:57.998Z,11.45
2023-03-18T05:18:19.401Z,11.56
2023-03-18T05:20:40.874Z,11.49
2023-03-18T05:23:03.040Z,11.50
2023-03-18T05:25:24.480Z,11.38
2023-03-18T05:27:47.593Z,11.34
2023-03-18T05:30:11.104Z,11.25
2023-03-18T05:32:32.691Z,11.05
2023-03-18T05:34:54.168Z,11.18
2023-03-18T05:37:15.980Z,10.99
2023-03-18T05:39:38.142Z,11.02
2023-03-18T05:42:00.548Z,10.94
2023-03-18T05:44:22.231Z,10.91
2023-03-18T05:46:43.773Z,10.98
2023-03-18T05:49:05.208Z,10.96
2023-03-18T05:51:26.667Z,11.00
2023-03-18T05:53:48.433Z,10.99
2023-03-18T05:56:10.519Z,10.78
2023-03-18T05:58:32.699Z,10.86
2023-03-18T06:00:54.824Z,11.21
2023-03-18T06:03:18.132Z,11.12
2023-03-18T06:05:40.024Z,11.13
2023-03-18T06:08:02.896Z,11.18
2023-03-18T06:10:25.843Z,11.12
2023-03-18T06:12:47.707Z,11.23
2023-03-18T06:15:11.034Z,11.31
2023-03-18T06:17:32.595Z,11.38
2023-03-18T06:19:54.489Z,11.35
2023-03-18T06:22:16.880Z,11.43
2023-03-18T06:24:38.305Z,11.47
2023-03-18T06:26:59.754Z,11.49
2023-03-18T06:29:21.182Z,11.49
2023-03-18T06:31:42.644Z,11.51
2023-03-18T06:34:04.976Z,11.57
2023-03-18T06:36:26.688Z,11.68
2023-03-18T06:38:48.133Z,11.78
2023-03-18T06:41:09.589Z,11.89
2023-03-18T06:43:31.211Z,11.92
2023-03-18T06:45:52.997Z,11.78
2023-03-18T06:48:15.090Z,11.84
2023-03-18T06:50:38.323Z,11.84
2023-03-18T06:52:59.762Z,11.95
2023-03-18T06:55:21.793Z,11.99
2023-03-18T06:57:43.535Z,11.97
2023-03-18T07:00:05.502Z,11.99
2023-03-18T07:02:27.495Z,12.11
2023-03-18T07:04:49.830Z,12.23
2023-03-18T07:07:11.947Z,12.40
2023-03-18T07:09:33.490Z,12.52
2023-03-18T07:11:55.069Z,12.68
2023-03-18T07:14:16.564Z,12.65
2023-03-18T07:16:39.098Z,12.69
2023-03-18T07:19:02.029Z,12.80
2023-03-18T07:21:23.656Z,12.84
2023-03-18T07:23:45.219Z,12.94
2023-03-18T07:26:07.132Z,13.08
2023-03-18T07:28:28.553Z,13.26
2023-03-18T07:30:51.963Z,13.33
2023-03-18T07:33:15.748Z,13.48
2023-03-18T07:35:40.916Z,13.61
2023-03-18T07:38:02.503Z,13.71
2023-03-18T07:40:24.336Z,13.72
2023-03-18T07:42:45.848Z,13.72
2023-03-18T07:45:08.328Z,13.53
2023-03-18T07:47:30.553Z,13.32
2023-03-18T07:49:52.038Z,13.44
2023-03-18T07:52:13.977Z,13.79
2023-03-18T07:54:35.906Z,13.89
2023-03-18T07:56:57.464Z,14.19
2023-03-18T07:59:19.240Z,14.51
2023-03-18T08:01:41.445Z,14.61
2023-03-18T08:04:03.008Z,14.33
2023-03-18T08:06:25.272Z,14.57
2023-03-18T08:08:46.808Z,14.63
2023-03-18T08:11:09.425Z,14.69
2023-03-18T08:13:30.911Z,14.77
2023-03-18T08:15:53.000Z,14.65
2023-03-18T08:18:14.658Z,14.55
2023-03-18T08:20:36.171Z,14.47
2023-03-18T08:22:57.873Z,14.39
2023-03-18T08:25:20.147Z,14.61
2023-03-18T08:27:42.390Z,15.01
2023-03-18T08:30:04.327Z,15.24
2023-03-18T08:32:25.854Z,15.25
2023-03-18T08:34:47.757Z,15.41
2023-03-18T08:37:09.868Z,15.60
2023-03-18T08:39:32.166Z,15.66
2023-03-18T08:41:53.735Z,15.73
2023-03-18T08:44:15.359Z,15.61
2023-03-18T08:46:39.747Z,15.47
2023-03-18T08:49:02.042Z,15.13
2023-03-18T08:51:23.574Z,15.13
2023-03-18T08:53:45.019Z,15.07
2023-03-18T08:56:07.841Z,15.08
2023-03-18T08:58:29.704Z,15.03
2023-03-18T09:00:52.531Z,15.10
2023-03-18T09:03:14.780Z,14.96
2023-03-18T09:05:37.724Z,15.08
2023-03-18T09:08:00.338Z,15.02
2023-03-18T09:10:21.978Z,15.00
2023-03-18T09:12:44.386Z,15.02
2023-03-18T09:15:07.436Z,14.99
2023-03-18T09:17:45.280Z,15.07
2023-03-18T09:20:14.017Z,15.06
2023-03-18T09:22:36.254Z,15.06
2023-03-18T09:24:58.626Z,15.19
2023-03-18T09:27:20.101Z,15.24
2023-03-18T09:29:43.196Z,15.23
2023-03-18T09:32:06.088Z,15.20
2023-03-18T09:34:27.531Z,15.09
2023-03-18T09:36:51.193Z,15.02
2023-03-18T09:39:13.037Z,15.02
2023-03-18T09:42:15.945Z,15.09
2023-03-18T09:44:38.753Z,15.04
2023-03-18T09:47:16.300Z,15.51
2023-03-18T09:49:49.538Z,15.35
2023-03-18T09:52:31.949Z,15.47
2023-03-18T09:55:03.065Z,15.60
2023-03-18T09:57:30.188Z,15.71
2023-03-18T09:59:57.270Z,15.71
2023-03-18T10:02:28.191Z,15.89
2023-03-18T10:04:56.233Z,16.17
2023-03-18T10:07:20.973Z,16.17
2023-03-18T10:09:47.065Z,16.18
2023-03-18T10:12:26.942Z,16.50
2023-03-18T10:15:11.304Z,17.06
2023-03-18T10:17:40.083Z,17.49
2023-03-18T10:20:09.132Z,17.89
2023-03-18T10:22:48.172Z,18.06
2023-03-18T10:25:46.941Z,18.53
2023-03-18T10:29:02.138Z,18.92
2023-03-18T10:31:52.268Z,19.09
2023-03-18T10:34:19.002Z,18.42
2023-03-18T10:36:47.407Z,18.82
2023-03-18T10:39:16.347Z,18.92
2023-03-18T10:41:39.012Z,18.92
2023-03-18T10:44:05.887Z,19.21
2023-03-18T10:46:28.296Z,19.47
2023-03-18T10:49:21.550Z,19.63
2023-03-18T10:52:06.172Z,19.32
2023-03-18T10:54:32.901Z,19.10
2023-03-18T10:56:54.780Z,19.83
2023-03-18T10:59:22.610Z,19.65
2023-03-18T11:01:48.503Z,19.83
2023-03-18T11:04:16.663Z,20.02
2023-03-18T11:06:45.161Z,19.66
2023-03-18T11:09:10.758Z,19.65
2023-03-18T11:11:34.874Z,19.86
2023-03-18T11:13:57.959Z,19.71
2023-03-18T11:16:30.526Z,19.66
2023-03-18T11:18:52.814Z,19.64
2023-03-18T11:21:15.033Z,19.15
2023-03-18T11:24:07.630Z,19.18
2023-03-18T11:26:30.419Z,19.10
2023-03-18T11:28:57.828Z,18.89
2023-03-18T11:31:19.581Z,18.99
2023-03-18T11:33:41.041Z,19.01
2023-03-18T11:36:08.864Z,18.98
2023-03-18T11:38:33.014Z,19.04
2023-03-18T11:41:23.102Z,19.05
2023-03-18T11:44:01.100Z,18.83
2023-03-18T11:46:48.859Z,19.25
2023-03-18T11:49:14.761Z,19.31
2023-03-18T11:51:49.089Z,19.18
2023-03-18T11:54:27.934Z,18.92
2023-03-18T11:57:27.427Z,18.82
2023-03-18T12:00:49.099Z,19.22
2023-03-18T12:03:38.417Z,19.33
2023-03-18T12:06:21.631Z,19.55
2023-03-18T12:08:57.015Z,19.68
2023-03-18T12:11:28.642Z,19.85
2023-03-18T12:14:05.637Z,20.10
2023-03-18T12:16:51.906Z,20.91
2023-03-18T12:19:38.111Z,20.96
2023-03-18T12:22:12.679Z,21.17
2023-03-18T12:25:04.164Z,21.23
2023-03-18T12:27:41.703Z,21.37
2023-03-18T12:30:03.140Z,21.02
2023-03-18T12:32:28.374Z,21.06
2023-03-18T12:35:05.911Z,20.53
2023-03-18T12:38:03.040Z,20.83
2023-03-18T12:40:29.325Z,20.80
2023-03-18T12:43:32.255Z,20.69
2023-03-18T12:46:00.274Z,20.59
2023-03-18T12:48:43.105Z,20.19
2023-03-18T12:51:14.905Z,20.46
2023-03-18T12:53:44.193Z,20.59
2023-03-18T12:56:22.455Z,20.46
2023-03-18T12:58:48.765Z,20.59
2023-03-18T13:01:18.100Z,20.83
2023-03-18T13:03:48.624Z,20.83
2023-03-18T13:06:42.138Z,20.97
2023-03-18T13:09:33.180Z,21.09
2023-03-18T13:11:54.637Z,21.18
2023-03-18T13:14:28.865Z,21.42
2023-03-18T13:16:51.956Z,21.58
2023-03-18T13:19:13.519Z,21.52
2023-03-18T13:21:43.301Z,21.61
2023-03-18T13:24:25.780Z,21.85
2023-03-18T13:27:22.619Z,22.27
2023-03-18T13:29:51.518Z,22.32
2023-03-18T13:33:03.779Z,22.53
2023-03-18T13:35:50.878Z,22.24
2023-03-18T13:38:45.748Z,21.85
2023-03-18T13:41:45.555Z,21.62
2023-03-18T13:44:19.259Z,21.46
2023-03-18T13:46:45.601Z,21.24
2023-03-18T13:49:18.768Z,21.52
2023-03-18T13:51:40.237Z,21.33
2023-03-18T13:54:08.744Z,21.52
2023-03-18T13:56:42.805Z,21.67
2023-03-18T13:59:07.800Z,21.84
2023-03-18T14:01:33.612Z,21.74
2023-03-18T14:04:43.119Z,21.77
2023-03-18T14:07:20.140Z,21.41
2023-03-18T14:10:15.313Z,21.44
2023-03-18T14:12:40.920Z,21.74
2023-03-18T14:15:14.545Z,21.99
2023-03-18T14:17:47.663Z,21.95
2023-03-18T14:20:15.182Z,21.64
2023-03-18T14:22:38.038Z,21.57
2023-03-18T14:25:13.297Z,21.38
2023-03-18T14:27:45.371Z,21.16
2023-03-18T14:30:32.044Z,21.34
2023-03-18T14:32:58.632Z,21.47
2023-03-18T14:35:30.427Z,21.87
2023-03-18T14:38:06.460Z,21.96
2023-03-18T14:40:28.918Z,21.59
2023-03-18T14:42:59.543Z,21.60
2023-03-18T14:45:27.729Z,21.46
2023-03-18T14:47:57.761Z,21.40
2023-03-18T14:50:32.812Z,21.17
2023-03-18T14:53:01.427Z,21.23
2023-03-18T14:55:27.865Z,20.93
2023-03-18T14:57:51.165Z,21.19
2023-03-18T15:00:17.388Z,21.11
2023-03-18T15:02:39.799Z,21.15
2023-03-18T15:05:02.700Z,21.76
2023-03-18T15:07:34.236Z,22.29
2023-03-18T15:09:56.937Z,22.47
2023-03-18T15:12:25.282Z,22.30
2023-03-18T15:14:46.710Z,22.82
2023-03-18T15:17:16.839Z,23.02
2023-03-18T15:19:38.291Z,23.08
2023-03-18T15:22:05.861Z,23.00
2023-03-18T15:24:27.803Z,22.95
2023-03-18T15:27:04.058Z,23.23
2023-03-18T15:29:33.204Z,23.39
2023-03-18T15:32:10.115Z,23.28
2023-03-18T15:34:33.530Z,22.91
2023-03-18T15:36:58.285Z,22.75
2023-03-18T15:39:36.177Z,22.41
2023-03-18T15:41:59.382Z,22.36
2023-03-18T15:44:29.768Z,22.27
2023-03-18T15:46:52.368Z,21.97
2023-03-18T15:49:13.894Z,21.99
2023-03-18T15:51:43.071Z,21.80
2023-03-18T15:54:14.799Z,21.87
2023-03-18T15:56:44.384Z,22.05
2023-03-18T15:59:19.819Z,22.25
2023-03-18T16:01:41.835Z,22.19
2023-03-18T16:04:06.594Z,22.16
2023-03-18T16:06:28.815Z,22.13
2023-03-18T16:08:50.262Z,22.03
2023-03-18T16:11:14.399Z,21.77
2023-03-18T16:13:37.177Z,21.62
2023-03-18T16:15:58.721Z,21.58
2023-03-18T16:18:21.585Z,21.55
2023-03-18T16:20:45.612Z,21.62
2023-03-18T16:23:07.557Z,21.51
2023-03-18T16:25:29.039Z,21.47
2023-03-18T16:27:54.128Z,21.33
2023-03-18T16:30:20.142Z,21.13
2023-03-18T16:32:41.638Z,21.05
2023-03-18T16:35:03.715Z,20.97
2023-03-18T16:37:27.287Z,20.93
2023-03-18T16:39:48.801Z,20.94
2023-03-18T16:42:10.463Z,21.00
2023-03-18T16:44:34.665Z,20.89
2023-03-18T16:46:57.709Z,20.84
2023-03-18T16:49:29.814Z,20.68
2023-03-18T16:51:51.791Z,20.65
2023-03-18T16:54:17.828Z,20.48
2023-03-18T16:56:39.614Z,20.40
2023-03-18T16:59:01.413Z,20.36
2023-03-18T17:01:24.983Z,20.28
2023-03-18T17:03:46.601Z,20.23
2023-03-18T17:06:08.835Z,19.96
2023-03-18T17:08:30.256Z,19.77
2023-03-18T17:10:56.972Z,19.68
2023-03-18T17:13:29.956Z,19.52
2023-03-18T17:15:51.805Z,19.42
2023-03-18T17:18:16.330Z,19.15
2023-03-18T17:20:37.947Z,18.95
2023-03-18T17:23:01.055Z,18.55
2023-03-18T17:25:25.605Z,18.42
2023-03-18T17:27:50.603Z,18.34
2023-03-18T17:30:20.622Z,18.09
2023-03-18T17:32:42.098Z,17.90
2023-03-18T17:35:13.203Z,17.65
2023-03-18T17:37:34.707Z,17.54
2023-03-18T17:39:56.436Z,17.42
2023-03-18T17:42:29.709Z,17.27
2023-03-18T17:44:51.292Z,17.19
2023-03-18T17:47:14.557Z,17.13
2023-03-18T17:49:38.498Z,16.93
2023-03-18T17:52:01.189Z,16.92
2023-03-18T17:54:25.353Z,16.65
2023-03-18T17:56:47.266Z,16.58
2023-03-18T17:59:17.658Z,16.58
2023-03-18T18:01:39.469Z,16.48
2023-03-18T18:04:01.749Z,16.42
2023-03-18T18:06:28.898Z,16.29
2023-03-18T18:08:50.529Z,16.11
2023-03-18T18:11:24.312Z,16.02
2023-03-18T18:13:46.122Z,15.96
2023-03-18T18:16:07.609Z,15.87
2023-03-18T18:18:29.231Z,15.73
2023-03-18T18:20:56.711Z,15.56
2023-03-18T18:23:25.065Z,15.41
2023-03-18T18:25:46.522Z,15.41
2023-03-18T18:28:19.424Z,15.37
2023-03-18T18:30:40.923Z,15.38
2023-03-18T18:33:02.897Z,15.24
2023-03-18T18:35:25.708Z,15.24
2023-03-18T18:37:48.670Z,15.19
2023-03-18T18:40:12.142Z,15.14
2023-03-18T18:42:33.566Z,15.18
2023-03-18T18:44:54.996Z,15.07
2023-03-18T18:47:19.142Z,15.04
2023-03-18T18:49:40.931Z,15.00
2023-03-18T18:52:02.560Z,15.01
2023-03-18T18:54:25.013Z,14.95
2023-03-18T18:56:47.129Z,14.76
2023-03-18T18:59:24.792Z,14.83
2023-03-18T19:01:46.284Z,14.82
2023-03-18T19:04:14.559Z,14.78
2023-03-18T19:06:36.543Z,14.78
2023-03-18T19:09:00.332Z,14.77
2023-03-18T19:11:21.804Z,14.83
2023-03-18T19:13:43.244Z,14.78
2023-03-18T19:16:12.233Z,14.76
2023-03-18T19:18:41.848Z,14.73
2023-03-18T19:21:03.553Z,14.67
2023-03-18T19:23:27.966Z,14.44
2023-03-18T19:25:49.892Z,14.48
2023-03-18T19:28:20.963Z,14.55
2023-03-18T19:30:42.778Z,14.51
2023-03-18T19:33:18.230Z,14.52
2023-03-18T19:35:41.390Z,14.23
2023-03-18T19:38:02.933Z,14.14
2023-03-18T19:40:31.286Z,14.15
2023-03-18T19:42:52.701Z,14.04
2023-03-18T19:45:14.359Z,14.13
2023-03-18T19:47:36.081Z,14.11
2023-03-18T19:49:57.741Z,14.07
2023-03-18T19:52:24.974Z,14.03
2023-03-18T19:54:47.155Z,13.71
2023-03-18T19:57:24.840Z,13.55
2023-03-18T19:59:48.535Z,13.34
2023-03-18T20:02:19.953Z,13.52
2023-03-18T20:04:41.550Z,13.61
2023-03-18T20:07:06.102Z,13.64
2023-03-18T20:09:28.461Z,13.67
2023-03-18T20:11:53.732Z,13.67
2023-03-18T20:14:27.757Z,13.52
2023-03-18T20:16:49.670Z,13.57
2023-03-18T20:19:13.616Z,13.62
2023-03-18T20:21:36.284Z,13.58
2023-03-18T20:24:07.720Z,13.53
2023-03-18T20:26:29.175Z,13.53
2023-03-18T20:28:55.400Z,13.55
2023-03-18T20:31:16.904Z,13.62
2023-03-18T20:33:38.343Z,13.55
2023-03-18T20:35:59.862Z,13.46
2023-03-18T20:38:37.776Z,13.47
2023-03-18T20:41:00.386Z,13.47
2023-03-18T20:43:25.447Z,13.46
2023-03-18T20:45:47.033Z,13.50
2023-03-18T20:48:08.923Z,13.51
2023-03-18T20:50:30.996Z,13.50
2023-03-18T20:52:52.795Z,13.41
2023-03-18T20:55:23.771Z,13.45
2023-03-18T20:57:45.701Z,13.47
2023-03-18T21:00:08.069Z,13.49
2023-03-18T21:02:32.685Z,13.39
2023-03-18T21:04:56.599Z,13.39
2023-03-18T21:07:18.080Z,13.38
2023-03-18T21:09:39.583Z,13.36
2023-03-18T21:12:01.046Z,13.18
2023-03-18T21:14:22.545Z,13.24
2023-03-18T21:16:44.119Z,13.24
2023-03-18T21:19:05.561Z,13.16
2023-03-18T21:21:31.328Z,13.19
2023-03-18T21:23:54.092Z,13.17
2023-03-18T21:26:16.001Z,13.05
2023-03-18T21:28:37.404Z,13.04
2023-03-18T21:30:59.165Z,13.08
2023-03-18T21:33:33.400Z,13.08
2023-03-18T21:35:58.305Z,13.02
2023-03-18T21:38:19.829Z,12.99
2023-03-18T21:40:41.529Z,12.72
2023-03-18T21:43:22.862Z,12.67
2023-03-18T21:45:44.306Z,12.75
2023-03-18T21:48:08.552Z,12.69
2023-03-18T21:50:31.139Z,12.64
2023-03-18T21:52:53.788Z,12.41
2023-03-18T21:55:16.408Z,12.64
2023-03-18T21:57:37.832Z,12.65
2023-03-18T21:59:59.267Z,12.60
2023-03-18T22:02:29.590Z,12.58
2023-03-18T22:04:51.087Z,12.56
2023-03-18T22:07:14.264Z,12.50
2023-03-18T22:09:35.669Z,12.44
2023-03-18T22:11:57.506Z,12.33
2023-03-18T22:14:18.935Z,12.25
2023-03-18T22:16:40.361Z,12.32
2023-03-18T22:19:01.800Z,12.36
2023-03-18T22:21:26.064Z,12.30
2023-03-18T22:23:47.652Z,12.32
2023-03-18T22:26:14.083Z,12.25
2023-03-18T22:28:35.691Z,12.14
2023-03-18T22:30:57.694Z,12.13
2023-03-18T22:33:24.196Z,11.97
2023-03-18T22:35:45.841Z,11.88
2023-03-18T22:38:13.346Z,11.79
2023-03-18T22:40:35.380Z,11.81
2023-03-18T22:42:59.696Z,11.73
2023-03-18T22:45:28.774Z,11.74
2023-03-18T22:47:51.647Z,11.68
2023-03-18T22:50:13.394Z,11.62
2023-03-18T22:52:34.896Z,11.64
2023-03-18T22:55:02.412Z,11.69
2023-03-18T22:57:28.774Z,11.73
2023-03-18T22:59:50.387Z,11.74
2023-03-18T23:02:25.178Z,11.70
2023-03-18T23:04:48.172Z,11.43
2023-03-18T23:07:31.129Z,11.46
2023-03-18T23:09:56.916Z,11.47
2023-03-18T23:12:18.777Z,11.52
2023-03-18T23:14:40.947Z,11.58
2023-03-18T23:17:02.406Z,11.40
2023-03-18T23:19:23.860Z,11.44
2023-03-18T23:21:45.327Z,11.47
2023-03-18T23:24:07.302Z,11.48
2023-03-18T23:26:28.765Z,11.55
2023-03-18T23:28:50.226Z,11.56
2023-03-18T23:31:12.256Z,11.60
2023-03-18T23:33:33.874Z,11.59
2023-03-18T23:35:55.358Z,11.46
2023-03-18T23:38:16.812Z,11.57
2023-03-18T23:40:38.517Z,11.22
2023-03-18T23:43:00.340Z,11.11
2023-03-18T23:45:24.710Z,11.24
2023-03-18T23:47:46.637Z,11.21
2023-03-18T23:50:10.329Z,11.31
2023-03-18T23:52:31.797Z,11.34
2023-03-18T23:54:53.211Z,11.38
2023-03-18T23:57:15.518Z,11.24
2023-03-18T23:59:37.146Z,11.29
